Time;durP1;ratioP1;P1;durP2;ratioP2;P2;SDS_P1;SDS_P2;PMS_P1;PMS_P2;Temp;Humidity;BMP_temperature;BMP_pressure;BME280_temperature;BME280_humidity;BME280_pressure;Samples;Min_cycle;Max_cycle;Signal;HPM_P1;HPM_P2
2023/03/12 00:00:42;;;;;;;;;17.33;16.67;;;;;10.40;77.86;100608.72;5035206;28;48119;-74
2023/03/12 00:03:08;;;;;;;;;11.67;10.00;;;;;10.41;77.67;100597.97;5035204;28;45261;-75
2023/03/12 00:05:41;;;;;;;;;15.33;14.33;;;;;10.38;78.08;100602.72;5038553;28;45266;-73
2023/03/12 00:08:07;;;;;;;;;17.67;15.00;;;;;10.37;79.10;100615.19;5038319;28;45217;-73
2023/03/12 00:10:33;;;;;;;;;13.67;12.33;;;;;10.41;78.95;100623.69;5040579;28;45671;-72
2023/03/12 00:12:58;;;;;;;;;18.33;14.33;;;;;9.64;78.40;100489.31;5040060;28;45807;-74
2023/03/12 00:15:24;;;;;;;;;15.33;12.67;;;;;10.42;78.65;100620.91;5040129;28;45706;-73
2023/03/12 00:17:50;;;;;;;;;13.33;10.00;;;;;10.45;78.80;100611.81;5040374;28;45376;-75
2023/03/12 00:20:15;;;;;;;;;13.67;12.00;;;;;10.49;78.24;100611.38;5039862;28;45325;-75
2023/03/12 00:22:41;;;;;;;;;13.33;13.33;;;;;10.30;78.50;100567.09;5039549;28;45581;-74
2023/03/12 00:25:11;;;;;;;;;15.33;15.00;;;;;10.58;78.29;100601.66;5040406;28;45473;-72
2023/03/12 00:27:36;;;;;;;;;16.67;13.67;;;;;10.61;77.86;100607.53;5040100;28;45626;-74
2023/03/12 00:30:03;;;;;;;;;12.67;12.67;;;;;10.69;78.11;100608.63;5039399;28;45650;-74
2023/03/12 00:32:31;;;;;;;;;18.00;12.00;;;;;10.24;77.37;100511.91;5039841;28;45206;-76
2023/03/12 00:34:56;;;;;;;;;13.33;12.33;;;;;10.01;77.19;100460.09;5039788;28;45487;-74
2023/03/12 00:37:22;;;;;;;;;12.67;10.33;;;;;10.86;76.70;100583.88;5039844;28;45414;-74
2023/03/12 00:39:47;;;;;;;;;15.33;13.67;;;;;10.89;76.46;100602.19;5038200;28;47969;-75
2023/03/12 00:42:13;;;;;;;;;15.33;12.00;;;;;10.69;76.20;100561.59;5039602;28;45541;-75
2023/03/12 00:44:39;;;;;;;;;12.67;11.67;;;;;10.92;76.38;100616.03;5039800;28;45435;-76
2023/03/12 00:47:05;;;;;;;;;17.33;12.67;;;;;10.92;76.80;100612.53;5039106;28;45392;-75
2023/03/12 00:49:30;;;;;;;;;8.00;8.00;;;;;10.76;76.68;100583.09;5039590;28;45648;-75
2023/03/12 00:51:55;;;;;;;;;13.00;12.00;;;;;10.75;76.19;100582.25;5038189;28;45424;-74
2023/03/12 00:54:21;;;;;;;;;14.00;10.67;;;;;10.98;76.56;100615.41;5038327;28;45630;-73
2023/03/12 00:56:47;;;;;;;;;18.67;11.67;;;;;11.09;75.83;100627.69;5038542;28;45364;-75
2023/03/12 00:59:14;;;;;;;;;15.00;13.67;;;;;11.10;75.79;100640.00;5036786;28;48509;-74
2023/03/12 01:01:39;;;;;;;;;16.00;12.67;;;;;10.23;76.01;100481.00;5038312;28;45504;-73
2023/03/12 01:04:05;;;;;;;;;12.67;12.67;;;;;11.06;76.88;100620.00;5038386;28;45182;-75
2023/03/12 01:06:30;;;;;;;;;11.00;9.67;;;;;11.17;76.52;100633.09;5040351;28;45398;-74
2023/03/12 01:08:56;;;;;;;;;16.67;15.67;;;;;11.22;75.87;100654.78;5037830;28;47637;-74
2023/03/12 01:11:22;;;;;;;;;14.00;12.00;;;;;11.24;76.17;100639.50;5038858;28;45257;-74
2023/03/12 01:13:47;;;;;;;;;11.00;10.67;;;;;11.31;75.81;100652.19;5038245;28;45405;-73
2023/03/12 01:16:13;;;;;;;;;22.33;21.00;;;;;10.21;75.58;100468.81;5038073;28;45338;-74
2023/03/12 01:18:38;;;;;;;;;14.00;12.67;;;;;11.16;76.00;100617.28;5039420;28;45473;-75
2023/03/12 01:21:04;;;;;;;;;19.00;18.00;;;;;11.43;75.65;100643.00;5039081;28;45415;-74
2023/03/12 01:23:30;;;;;;;;;8.00;8.00;;;;;11.39;75.75;100645.09;5039238;28;45378;-75
2023/03/12 01:25:56;;;;;;;;;11.33;9.67;;;;;11.30;76.00;100642.53;5038368;28;45565;-73
2023/03/12 01:28:22;;;;;;;;;14.00;14.00;;;;;11.06;76.43;100614.69;5037587;28;47642;-75
2023/03/12 01:30:48;;;;;;;;;13.00;9.33;;;;;11.02;76.45;100608.00;5038886;28;45210;-73
2023/03/12 01:33:13;;;;;;;;;10.00;8.67;;;;;11.21;76.70;100653.09;5037458;28;45531;-73
2023/03/12 01:35:40;;;;;;;;;12.33;11.00;;;;;11.10;76.85;100632.03;5038947;28;45210;-75
2023/03/12 01:38:07;;;;;;;;;14.33;12.67;;;;;11.15;76.65;100650.19;5038463;28;46398;-74
2023/03/12 01:40:34;;;;;;;;;12.67;10.00;;;;;11.04;77.45;100635.28;5038679;28;45447;-74
2023/03/12 01:43:21;;;;;;;;;12.00;8.00;;;;;10.02;76.92;100467.94;5037238;28;45376;-74
2023/03/12 01:46:01;;;;;;;;;9.00;9.00;;;;;11.02;77.00;100637.28;5038736;28;45341;-73
2023/03/12 01:48:38;;;;;;;;;13.33;10.00;;;;;11.04;76.72;100645.94;5037065;28;46049;-75
2023/03/12 01:51:06;;;;;;;;;11.00;9.33;;;;;10.95;76.95;100628.19;5038567;28;45285;-72
2023/03/12 01:53:32;;;;;;;;;7.67;7.67;;;;;10.25;76.95;100512.75;5038840;28;45218;-73
2023/03/12 01:55:59;;;;;;;;;10.67;8.33;;;;;10.93;76.62;100619.53;5038796;28;45545;-73
2023/03/12 01:58:27;;;;;;;;;9.33;8.33;;;;;10.98;76.49;100630.53;5038059;28;46902;-73
2023/03/12 02:00:53;;;;;;;;;10.33;6.67;;;;;10.97;76.96;100639.50;5070622;28;45370;-73
2023/03/12 02:03:18;;;;;;;;;9.67;7.33;;;;;10.85;76.72;100616.78;5037015;28;45569;-73
2023/03/12 02:05:50;;;;;;;;;10.00;8.33;;;;;9.73;76.94;100438.84;5038354;28;45348;-74
2023/03/12 02:08:17;;;;;;;;;9.33;7.67;;;;;10.42;77.18;100546.50;5038181;28;46458;-72
2023/03/12 02:10:42;;;;;;;;;6.67;6.67;;;;;10.65;77.17;100592.13;5037922;28;45315;-73
2023/03/12 02:13:10;;;;;;;;;7.00;6.00;;;;;10.85;77.23;100614.97;5038232;28;45467;-74
2023/03/12 02:15:36;;;;;;;;;9.00;7.67;;;;;10.86;77.49;100623.78;5037334;28;45410;-73
2023/03/12 02:18:07;;;;;;;;;9.00;7.00;;;;;9.89;77.45;100459.47;5038015;28;45854;-74
2023/03/12 02:20:55;;;;;;;;;8.67;7.67;;;;;10.81;77.93;100629.56;5037798;28;45278;-75
2023/03/12 02:23:30;;;;;;;;;9.00;7.00;;;;;10.70;77.81;100604.97;5070449;28;45449;-75
2023/03/12 02:25:56;;;;;;;;;12.00;8.67;;;;;10.77;77.28;100622.00;5039246;28;45558;-74
2023/03/12 02:28:26;;;;;;;;;11.00;8.00;;;;;10.42;77.56;100565.09;5039006;28;46766;-75
2023/03/12 02:30:55;;;;;;;;;7.33;7.00;;;;;10.51;77.39;100566.88;5036324;28;45517;-74
2023/03/12 02:33:21;;;;;;;;;9.33;8.00;;;;;10.61;77.46;100604.88;5038000;28;45356;-73
2023/03/12 02:35:47;;;;;;;;;11.00;8.33;;;;;10.73;77.68;100612.66;5038280;28;45488;-72
2023/03/12 02:38:34;;;;;;;;;12.33;8.00;;;;;10.85;77.68;100638.91;5036487;28;47022;-74
2023/03/12 02:41:07;;;;;;;;;8.33;6.67;;;;;10.86;77.22;100643.22;5036476;28;46093;-75
2023/03/12 02:43:34;;;;;;;;;5.00;5.00;;;;;10.70;77.03;100610.28;5037888;28;45566;-75
2023/03/12 02:45:59;;;;;;;;;12.67;7.00;;;;;10.79;76.88;100642.13;5037622;28;46294;-74
2023/03/12 02:48:24;;;;;;;;;12.67;8.00;;;;;10.88;77.38;100656.38;5052905;28;46758;-74
2023/03/12 02:50:50;;;;;;;;;9.00;8.00;;;;;10.82;77.75;100647.19;5036239;28;45465;-73
2023/03/12 02:53:15;;;;;;;;;8.33;6.67;;;;;10.94;77.77;100666.41;5037798;28;45295;-73
2023/03/12 02:55:40;;;;;;;;;7.33;6.67;;;;;10.61;77.48;100602.22;5037975;28;45566;-73
2023/03/12 02:58:06;;;;;;;;;12.33;9.00;;;;;10.91;77.66;100651.59;5069681;28;49588;-71
2023/03/12 03:00:31;;;;;;;;;10.67;9.33;;;;;10.76;77.51;100617.66;5036151;28;45278;-74
2023/03/12 03:03:00;;;;;;;;;8.33;4.67;;;;;11.06;77.48;100653.75;5036147;28;45516;-73
2023/03/12 03:05:26;;;;;;;;;10.67;6.00;;;;;10.76;77.26;100591.91;5037720;28;45459;-75
2023/03/12 03:07:52;;;;;;;;;12.00;6.00;;;;;11.07;77.04;100640.31;5037319;28;45695;-76
2023/03/12 03:10:17;;;;;;;;;9.33;6.33;;;;;11.07;76.79;100644.78;5037375;28;45468;-74
2023/03/12 03:12:43;;;;;;;;;7.00;6.00;;;;;11.20;76.51;100663.88;5037268;28;45501;-74
2023/03/12 03:15:09;;;;;;;;;6.33;5.00;;;;;11.08;76.69;100630.50;5036253;28;45542;-71
2023/03/12 03:17:34;;;;;;;;;6.67;5.33;;;;;11.21;76.44;100657.56;5037091;28;45502;-74
2023/03/12 03:19:59;;;;;;;;;6.33;5.67;;;;;10.93;76.30;100606.22;5037165;28;45165;-74
2023/03/12 03:22:25;;;;;;;;;5.33;5.33;;;;;11.28;76.68;100664.81;5037247;28;45363;-72
2023/03/12 03:24:52;;;;;;;;;11.33;5.00;;;;;11.27;76.39;100654.31;5037419;28;45272;-74
2023/03/12 03:27:17;;;;;;;;;14.33;8.00;;;;;11.30;76.22;100662.00;5036792;28;46212;-73
2023/03/12 03:29:45;;;;;;;;;9.33;6.67;;;;;11.28;76.13;100659.50;5037243;28;45395;-73
2023/03/12 03:32:10;;;;;;;;;10.00;7.00;;;;;11.06;76.15;100625.34;5035863;28;45418;-73
2023/03/12 03:34:35;;;;;;;;;6.33;6.33;;;;;11.03;75.81;100617.66;5037041;28;45379;-74
2023/03/12 03:37:01;;;;;;;;;6.67;4.67;;;;;10.97;75.72;100624.38;5036933;28;45785;-74
2023/03/12 03:39:28;;;;;;;;;5.00;4.00;;;;;11.03;76.00;100638.09;5037115;28;45237;-74
2023/03/12 03:41:53;;;;;;;;;9.67;6.00;;;;;10.59;75.39;100560.78;5036891;28;45308;-73
2023/03/12 03:44:21;;;;;;;;;5.33;5.33;;;;;11.36;75.43;100692.50;5039960;28;45230;-73
2023/03/12 03:46:46;;;;;;;;;7.00;6.00;;;;;10.93;75.39;100624.84;5040427;28;46730;-74
2023/03/12 03:49:12;;;;;;;;;6.00;6.00;;;;;11.32;75.37;100686.63;5039104;28;45628;-73
2023/03/12 03:51:37;;;;;;;;;8.33;5.33;;;;;10.80;75.65;100605.72;5038850;28;45312;-74
2023/03/12 03:54:02;;;;;;;;;6.33;4.67;;;;;11.26;75.59;100697.91;5040716;28;45334;-73
2023/03/12 03:56:28;;;;;;;;;7.67;6.67;;;;;10.89;75.32;100631.47;5038554;28;48127;-74
2023/03/12 03:58:53;;;;;;;;;10.00;5.33;;;;;11.00;75.38;100665.81;5072663;28;45476;-74
2023/03/12 04:01:19;;;;;;;;;7.33;5.00;;;;;10.98;75.71;100667.78;5040347;28;45429;-73
2023/03/12 04:03:44;;;;;;;;;6.67;6.67;;;;;11.14;75.40;100702.56;5040967;28;45236;-76
2023/03/12 04:06:11;;;;;;;;;7.00;7.00;;;;;10.98;76.12;100681.94;5042252;28;46226;-74
2023/03/12 04:08:37;;;;;;;;;8.00;7.00;;;;;10.68;76.03;100644.16;5040436;28;45448;-71
2023/03/12 04:11:07;;;;;;;;;7.33;5.67;;;;;11.05;75.75;100727.41;5040207;28;45282;-73
2023/03/12 04:13:33;;;;;;;;;12.00;8.00;;;;;10.45;75.96;100625.94;5040173;28;45398;-73
2023/03/12 04:15:58;;;;;;;;;7.00;5.67;;;;;10.88;76.25;100715.72;5039857;28;45673;-73
2023/03/12 04:18:24;;;;;;;;;7.50;6.00;;;;;10.97;75.82;100714.84;5042473;28;45371;-73
2023/03/12 04:20:49;;;;;;;;;6.33;4.67;;;;;10.92;76.18;100708.28;5038855;28;45615;-73
2023/03/12 04:23:14;;;;;;;;;4.67;4.67;;;;;10.97;75.83;100720.16;5040238;28;45327;-74
2023/03/12 04:25:39;;;;;;;;;6.33;4.33;;;;;10.98;75.72;100729.81;5055328;28;48219;-74
2023/03/12 04:28:05;;;;;;;;;7.67;6.67;;;;;11.09;76.11;100741.25;5041050;28;45255;-75
2023/03/12 04:30:31;;;;;;;;;6.67;4.67;;;;;10.68;75.85;100682.22;5040855;28;45306;-74
2023/03/12 04:32:56;;;;;;;;;7.67;7.67;;;;;11.13;76.07;100751.44;5038800;28;45250;-72
2023/03/12 04:35:23;;;;;;;;;5.67;5.67;;;;;11.16;75.76;100751.16;5038268;28;47189;-73
2023/03/12 04:37:49;;;;;;;;;5.00;5.00;;;;;11.18;75.55;100757.16;5039796;28;45230;-73
2023/03/12 04:40:15;;;;;;;;;9.00;7.00;;;;;11.21;75.79;100759.56;5039666;28;45513;-72
2023/03/12 04:42:40;;;;;;;;;14.33;7.67;;;;;10.79;75.81;100705.94;5039741;28;45498;-72
2023/03/12 04:45:06;;;;;;;;;6.33;5.00;;;;;11.19;75.28;100774.81;5037914;28;48246;-73
2023/03/12 04:47:32;;;;;;;;;6.33;5.33;;;;;11.18;75.19;100775.78;5039658;28;45491;-73
2023/03/12 04:49:59;;;;;;;;;8.00;6.33;;;;;11.20;75.48;100787.13;5039285;28;45391;-72
2023/03/12 04:52:25;;;;;;;;;7.33;4.67;;;;;11.18;75.49;100786.44;5039825;28;45427;-73
2023/03/12 04:54:52;;;;;;;;;7.00;3.00;;;;;11.20;75.51;100779.13;5037335;28;47988;-73
2023/03/12 04:57:17;;;;;;;;;4.33;3.67;;;;;10.38;75.58;100643.44;5037922;28;45301;-72
2023/03/12 04:59:42;;;;;;;;;8.67;6.00;;;;;11.05;75.44;100769.16;5039293;28;45466;-72
2023/03/12 05:02:07;;;;;;;;;5.00;5.00;;;;;10.94;75.59;100744.38;5039523;28;45233;-72
2023/03/12 05:04:33;;;;;;;;;8.00;6.00;;;;;10.90;75.42;100751.00;5037743;28;47712;-72
2023/03/12 05:06:58;;;;;;;;;9.00;3.00;;;;;11.02;75.52;100758.81;5039120;28;45578;-73
2023/03/12 05:09:24;;;;;;;;;8.00;4.00;;;;;11.13;75.49;100782.53;5039221;28;45445;-75
2023/03/12 05:11:49;;;;;;;;;5.00;4.00;;;;;10.72;75.10;100725.31;5039472;28;45539;-72
2023/03/12 05:14:14;;;;;;;;;6.67;5.33;;;;;10.82;75.25;100747.41;5038840;28;51309;-72
2023/03/12 05:16:40;;;;;;;;;9.67;4.67;;;;;11.09;75.41;100803.28;5039073;28;45323;-73
2023/03/12 05:19:05;;;;;;;;;6.00;4.33;;;;;10.91;75.40;100779.28;5039510;28;45426;-73
2023/03/12 05:21:32;;;;;;;;;6.33;6.33;;;;;11.06;75.67;100813.38;5038182;28;45435;-73
2023/03/12 05:23:57;;;;;;;;;8.00;6.67;;;;;11.07;75.60;100823.06;5037357;28;48926;-73
2023/03/12 05:26:26;;;;;;;;;13.00;6.67;;;;;10.44;75.77;100705.81;5038920;28;45440;-73
2023/03/12 05:28:51;;;;;;;;;10.33;6.00;;;;;11.06;75.51;100808.91;5039224;28;45292;-73
2023/03/12 05:31:17;;;;;;;;;5.00;5.00;;;;;10.55;75.03;100718.91;5038986;28;45491;-73
2023/03/12 05:33:42;;;;;;;;;6.00;3.67;;;;;11.13;75.52;100811.81;5038689;28;45348;-73
2023/03/12 05:36:08;;;;;;;;;7.00;4.00;;;;;10.36;74.65;100683.44;5038767;28;45270;-72
2023/03/12 05:38:34;;;;;;;;;8.33;7.33;;;;;11.18;74.54;100822.84;5038313;28;45167;-72
2023/03/12 05:40:59;;;;;;;;;11.00;7.00;;;;;11.13;74.56;100810.00;5039093;28;45233;-73
2023/03/12 05:43:26;;;;;;;;;5.67;4.33;;;;;10.48;74.63;100699.22;5038579;28;46296;-74
2023/03/12 05:45:51;;;;;;;;;11.00;5.67;;;;;10.89;74.26;100770.59;5039312;28;45349;-73
2023/03/12 05:48:17;;;;;;;;;9.33;6.33;;;;;11.28;73.77;100824.50;5038840;28;45420;-73
2023/03/12 05:50:42;;;;;;;;;10.00;5.33;;;;;10.95;73.80;100769.16;5037635;28;45615;-72
2023/03/12 05:53:08;;;;;;;;;9.00;5.00;;;;;11.34;73.22;100824.91;5036908;28;47441;-73
2023/03/12 05:55:35;;;;;;;;;5.00;4.00;;;;;11.09;73.41;100782.00;5038429;28;45428;-73
2023/03/12 05:58:01;;;;;;;;;22.33;22.00;;;;;11.10;72.87;100789.00;5037064;28;45391;-73
2023/03/12 06:00:26;;;;;;;;;4.00;4.00;;;;;11.24;72.95;100817.81;5038423;28;45490;-75
2023/03/12 06:02:51;;;;;;;;;6.33;4.33;;;;;11.26;73.00;100815.00;5037873;28;46885;-71
2023/03/12 06:05:17;;;;;;;;;10.00;5.33;;;;;10.61;73.30;100721.84;5035890;28;45507;-72
2023/03/12 06:07:42;;;;;;;;;13.33;5.67;;;;;10.89;73.01;100778.56;5038123;28;45313;-71
2023/03/12 06:10:08;;;;;;;;;8.00;3.00;;;;;11.24;72.87;100849.75;5038229;28;45495;-73
2023/03/12 06:12:34;;;;;;;;;9.33;7.33;;;;;11.24;73.38;100849.75;5037961;28;45765;-74
2023/03/12 06:14:59;;;;;;;;;7.00;4.67;;;;;10.62;73.29;100744.81;5037752;28;45248;-72
2023/03/12 06:17:24;;;;;;;;;9.33;4.33;;;;;11.26;73.89;100863.75;5038438;28;45237;-73
2023/03/12 06:19:51;;;;;;;;;10.33;4.33;;;;;11.00;73.56;100820.09;5036965;28;45485;-73
2023/03/12 06:22:17;;;;;;;;;9.33;6.00;;;;;11.24;73.52;100854.22;5036369;28;47614;-72
2023/03/12 06:24:46;;;;;;;;;7.33;4.00;;;;;11.26;74.10;100865.56;5037885;28;45312;-74
2023/03/12 06:27:14;;;;;;;;;10.67;7.00;;;;;11.30;73.64;100866.09;5038146;28;45365;-74
2023/03/12 06:29:40;;;;;;;;;5.67;4.67;;;;;11.20;73.70;100840.34;5036925;28;45465;-75
2023/03/12 06:32:06;;;;;;;;;5.00;3.67;;;;;10.92;73.52;100777.44;5037686;28;45835;-72
2023/03/12 06:34:31;;;;;;;;;9.67;6.00;;;;;11.36;73.47;100855.69;5037913;28;45218;-73
2023/03/12 06:36:57;;;;;;;;;9.33;6.00;;;;;11.29;73.47;100841.31;5037806;28;45417;-73
2023/03/12 06:39:22;;;;;;;;;9.00;5.00;;;;;11.39;73.35;100857.22;5037887;28;45408;-74
2023/03/12 06:41:47;;;;;;;;;7.33;5.00;;;;;11.38;73.35;100828.94;5037752;28;45493;-73
2023/03/12 06:44:13;;;;;;;;;9.00;6.67;;;;;11.22;73.72;100806.47;5036012;28;45415;-73
2023/03/12 06:46:39;;;;;;;;;9.33;7.00;;;;;11.44;73.54;100841.69;5036455;28;45349;-73
2023/03/12 06:49:05;;;;;;;;;9.67;7.00;;;;;11.26;73.01;100812.34;5036537;28;45483;-72
2023/03/12 06:51:30;;;;;;;;;9.67;6.33;;;;;11.50;72.85;100867.69;5037283;28;45564;-72
2023/03/12 06:53:56;;;;;;;;;5.67;5.00;;;;;11.58;73.20;100879.28;5037341;28;45391;-74
2023/03/12 06:56:21;;;;;;;;;13.00;7.67;;;;;11.62;72.84;100887.84;5037591;28;45777;-73
2023/03/12 06:58:46;;;;;;;;;8.00;6.67;;;;;11.61;72.79;100878.16;5037511;28;45571;-73
2023/03/12 07:01:12;;;;;;;;;4.00;4.00;;;;;11.50;72.60;100860.56;5037367;28;45484;-75
2023/03/12 07:03:37;;;;;;;;;10.33;9.00;;;;;11.53;73.07;100864.75;5036212;28;46296;-74
2023/03/12 07:06:03;;;;;;;;;12.67;8.67;;;;;11.54;72.44;100855.75;5037720;28;45273;-75
2023/03/12 07:08:29;;;;;;;;;9.00;5.33;;;;;11.55;72.60;100862.78;5038365;28;45518;-76
2023/03/12 07:10:56;;;;;;;;;6.67;6.00;;;;;11.50;72.34;100835.75;5037647;28;45620;-73
2023/03/12 07:13:21;;;;;;;;;7.33;4.33;;;;;10.89;72.07;100729.88;5037659;28;45215;-74
2023/03/12 07:15:46;;;;;;;;;9.00;6.00;;;;;11.89;72.17;100879.03;5035965;28;45502;-73
2023/03/12 07:18:12;;;;;;;;;8.00;8.00;;;;;11.43;71.59;100792.09;5037063;28;45524;-74
2023/03/12 07:20:42;;;;;;;;;9.33;6.33;;;;;11.98;71.66;100874.63;5036986;28;45961;-72
2023/03/12 07:23:08;;;;;;;;;8.00;6.00;;;;;12.06;71.39;100888.88;5037066;28;45361;-75
2023/03/12 07:25:36;;;;;;;;;9.33;5.33;;;;;12.13;71.19;100902.44;5040621;28;45290;-74
2023/03/12 07:28:02;;;;;;;;;11.33;5.00;;;;;11.86;70.68;100821.56;5037143;28;45188;-74
2023/03/12 07:30:32;;;;;;;;;9.33;6.00;;;;;12.37;70.99;100896.50;5036760;28;45911;-75
2023/03/12 07:32:58;;;;;;;;;10.67;6.00;;;;;12.46;70.11;100904.47;5036786;28;45349;-74
2023/03/12 07:35:23;;;;;;;;;9.33;7.00;;;;;12.30;69.84;100863.47;5036742;28;45240;-73
2023/03/12 07:37:49;;;;;;;;;15.67;7.67;;;;;12.20;69.00;100804.88;5037286;28;45358;-74
2023/03/12 07:40:14;;;;;;;;;9.00;6.67;;;;;12.48;68.07;100803.81;5036589;28;46058;-73
2023/03/12 07:42:40;;;;;;;;;9.33;9.00;;;;;13.74;67.40;100935.09;5036900;28;45504;-73
2023/03/12 07:45:06;;;;;;;;;14.67;12.00;;;;;14.12;64.38;100937.25;5035119;28;45965;-74
2023/03/12 07:47:32;;;;;;;;;12.00;7.33;;;;;14.23;63.49;100882.66;5037157;28;45467;-74
2023/03/12 07:49:57;;;;;;;;;6.00;5.67;;;;;14.46;62.57;100861.47;5035273;28;48310;-75
2023/03/12 07:52:23;;;;;;;;;10.33;7.33;;;;;15.23;61.58;100935.06;5035289;28;45431;-74
2023/03/12 07:54:48;;;;;;;;;8.67;4.33;;;;;15.19;60.39;100874.78;5036870;28;45502;-74
2023/03/12 07:57:13;;;;;;;;;7.33;6.00;;;;;15.66;59.37;100946.38;5037469;28;45656;-73
2023/03/12 07:59:39;;;;;;;;;8.00;5.33;;;;;15.62;58.84;100931.66;5036427;28;45711;-75
2023/03/12 08:02:04;;;;;;;;;6.00;3.33;;;;;14.88;59.25;100830.00;5023059;28;45594;-74
2023/03/12 08:04:30;;;;;;;;;10.00;6.00;;;;;15.38;59.43;100916.44;5027050;28;45470;-75
2023/03/12 08:06:55;;;;;;;;;7.67;4.00;;;;;15.14;59.50;100903.91;5035081;28;45520;-73
2023/03/12 08:09:20;;;;;;;;;7.00;7.00;;;;;15.34;59.74;100926.66;5048081;28;45722;-75
2023/03/12 08:11:46;;;;;;;;;7.00;4.33;;;;;14.99;58.96;100855.56;5035401;28;45391;-75
2023/03/12 08:14:11;;;;;;;;;9.33;6.00;;;;;14.13;58.66;100703.63;5041699;28;45412;-78
2023/03/12 08:16:36;;;;;;;;;8.00;5.67;;;;;15.39;59.08;100932.31;5036995;28;45490;-76
2023/03/12 08:19:02;;;;;;;;;11.67;5.33;;;;;15.36;58.68;100924.63;5035569;28;46149;-74
2023/03/12 08:21:27;;;;;;;;;10.00;8.33;;;;;15.17;58.89;100903.56;5036217;28;45340;-73
2023/03/12 08:23:52;;;;;;;;;7.33;5.33;;;;;14.46;58.86;100826.69;5035474;28;45407;-76
2023/03/12 08:26:18;;;;;;;;;7.33;6.00;;;;;14.89;59.38;100895.09;5034512;28;45641;-74
2023/03/12 08:28:43;;;;;;;;;6.33;4.33;;;;;14.78;59.62;100866.81;5036670;28;45228;-75
2023/03/12 08:31:09;;;;;;;;;7.33;6.00;;;;;15.23;59.37;100940.41;5039874;28;45498;-75
2023/03/12 08:33:35;;;;;;;;;9.67;6.00;;;;;15.16;59.19;100920.66;5039848;28;45621;-73
2023/03/12 08:36:00;;;;;;;;;7.33;5.67;;;;;14.99;58.55;100890.38;5038272;28;45605;-75
2023/03/12 08:38:26;;;;;;;;;6.00;4.33;;;;;14.67;58.77;100823.50;5038311;28;46587;-74
2023/03/12 08:40:56;;;;;;;;;4.67;4.00;;;;;15.48;58.42;100944.72;5038239;28;45606;-74
2023/03/12 08:43:22;;;;;;;;;6.67;4.00;;;;;15.29;57.86;100878.13;5039691;28;45363;-75
2023/03/12 08:46:01;;;;;;;;;6.67;4.00;;;;;15.18;57.98;100903.41;5035461;28;45415;-74
2023/03/12 08:48:29;;;;;;;;;10.00;5.33;;;;;15.81;58.55;100963.41;5040657;28;46790;-74
2023/03/12 08:50:55;;;;;;;;;9.00;5.00;;;;;15.52;56.83;100887.09;5046357;28;45498;-75
2023/03/12 08:53:21;;;;;;;;;7.67;5.33;;;;;16.07;56.78;100969.34;5039294;28;45340;-74
2023/03/12 08:55:46;;;;;;;;;8.33;4.67;;;;;16.11;55.92;100946.53;5039557;28;45542;-75
2023/03/12 08:58:12;;;;;;;;;8.67;5.67;;;;;15.70;55.06;100852.03;5029175;28;47013;-74
2023/03/12 09:00:37;;;;;;;;;7.67;4.67;;;;;16.36;54.73;100970.53;5030499;28;45742;-76
2023/03/12 09:03:02;;;;;;;;;4.67;3.67;;;;;16.29;54.73;100977.63;5042229;28;45590;-74
2023/03/12 09:05:28;;;;;;;;;11.00;5.33;;;;;16.27;54.82;100971.63;5040198;28;45480;-74
2023/03/12 09:07:55;;;;;;;;;8.00;4.33;;;;;16.25;55.41;100984.38;5039769;28;45626;-73
2023/03/12 09:10:20;;;;;;;;;9.00;5.00;;;;;16.19;55.43;100990.41;5039992;28;45341;-76
2023/03/12 09:12:46;;;;;;;;;8.00;6.33;;;;;15.31;54.75;100849.31;5040089;28;45284;-75
2023/03/12 09:15:11;;;;;;;;;4.33;4.33;;;;;16.03;54.55;100973.41;5038098;28;45400;-76
2023/03/12 09:17:37;;;;;;;;;4.33;3.00;;;;;15.82;55.12;100947.16;5039092;28;45490;-74
2023/03/12 09:20:07;;;;;;;;;5.00;3.67;;;;;15.78;55.11;100948.50;5039753;28;45456;-75
2023/03/12 09:22:35;;;;;;;;;5.33;4.00;;;;;15.10;54.36;100832.97;5038765;28;45226;-73
2023/03/12 09:25:02;;;;;;;;;5.00;4.00;;;;;14.39;53.94;100780.16;5038483;28;45984;-79
2023/03/12 09:27:28;;;;;;;;;4.00;3.33;;;;;15.75;54.12;100993.59;5025066;28;46523;-73
2023/03/12 09:29:55;;;;;;;;;7.33;2.67;;;;;16.13;53.05;100984.75;5031766;28;45375;-77
2023/03/12 09:32:20;;;;;;;;;3.33;3.33;;;;;15.93;52.11;100935.22;5034911;28;45396;-73
2023/03/12 09:34:46;;;;;;;;;5.67;4.33;;;;;16.13;51.99;100987.41;5030021;28;45499;-77
2023/03/12 09:37:11;;;;;;;;;2.00;2.00;;;;;16.28;51.56;100989.38;5046477;28;47755;-72
2023/03/12 09:39:37;;;;;;;;;4.00;4.00;;;;;16.19;51.80;100985.88;5038408;28;45484;-74
2023/03/12 09:42:05;;;;;;;;;5.67;3.00;;;;;16.45;51.48;100984.78;5038326;28;45383;-74
2023/03/12 09:44:40;;;;;;;;;5.00;4.00;;;;;17.04;50.33;101002.03;5038554;28;45630;-77
2023/03/12 09:47:20;;;;;;;;;7.33;3.00;;;;;17.81;48.51;100986.50;5037128;28;47622;-76
2023/03/12 09:49:53;;;;;;;;;6.33;3.67;;;;;18.55;46.45;100948.72;5039033;28;45381;-75
2023/03/12 09:52:24;;;;;;;;;6.67;3.00;;;;;19.05;45.34;100982.84;5036933;28;45316;-75
2023/03/12 09:55:05;;;;;;;;;8.33;4.67;;;;;19.78;44.13;100983.41;5038456;28;45269;-76
2023/03/12 09:57:30;;;;;;;;;6.00;4.00;;;;;19.13;43.56;100936.88;5038322;28;46759;-75
2023/03/12 09:59:56;;;;;;;;;5.00;4.00;;;;;18.72;44.97;100925.13;5037209;28;46290;-72
2023/03/12 10:02:48;;;;;;;;;5.33;2.00;;;;;18.62;44.40;100978.41;5038840;28;45546;-75
2023/03/12 10:05:33;;;;;;;;;3.00;2.67;;;;;18.16;45.17;100978.72;5017856;28;45388;-74
2023/03/12 10:08:17;;;;;;;;;4.00;2.67;;;;;18.09;46.13;100988.56;5055380;28;47885;-75
2023/03/12 10:10:54;;;;;;;;;4.00;3.33;;;;;17.94;46.41;100967.03;5058623;28;45383;-74
2023/03/12 10:13:48;;;;;;;;;5.00;2.33;;;;;18.14;45.53;100986.16;5058692;28;45458;-74
2023/03/12 10:16:38;;;;;;;;;4.67;3.00;;;;;18.12;45.01;100980.13;5046792;28;45474;-75
2023/03/12 10:19:41;;;;;;;;;2.33;1.67;;;;;17.97;44.79;100987.34;5042185;28;45486;-74
2023/03/12 10:22:45;;;;;;;;;4.33;1.33;;;;;17.81;44.93;100991.91;5038993;28;45508;-75
2023/03/12 10:25:39;;;;;;;;;6.67;5.67;;;;;17.58;45.23;100983.88;5056413;28;45577;-74
2023/03/12 10:28:43;;;;;;;;;5.00;3.00;;;;;17.57;45.92;100992.97;5032337;28;45394;-74
2023/03/12 10:31:25;;;;;;;;;5.33;2.33;;;;;17.51;46.41;100990.19;5036704;28;48199;-74
2023/03/12 10:33:55;;;;;;;;;6.67;4.33;;;;;17.21;47.04;100965.91;5038198;28;45490;-74
2023/03/12 10:36:28;;;;;;;;;2.67;2.00;;;;;17.20;46.21;100969.63;5038782;28;45414;-76
2023/03/12 10:38:54;;;;;;;;;2.00;1.33;;;;;17.22;46.49;100975.69;5018881;28;45328;-74
2023/03/12 10:41:22;;;;;;;;;4.00;2.00;;;;;17.14;45.36;100959.63;5032092;28;48516;-74
2023/03/12 10:43:48;;;;;;;;;5.33;3.33;;;;;17.13;45.29;100995.56;5046046;28;45450;-77
2023/03/12 10:46:13;;;;;;;;;8.33;3.67;;;;;17.05;45.72;100984.91;5037244;28;45258;-77
2023/03/12 10:48:39;;;;;;;;;3.00;3.00;;;;;16.63;46.01;100924.44;5038711;28;45316;-74
2023/03/12 10:51:11;;;;;;;;;5.33;2.67;;;;;16.94;46.30;100993.38;5037924;28;45796;-78
2023/03/12 10:53:46;;;;;;;;;4.33;3.00;;;;;16.75;47.05;100980.41;5036426;28;45752;-74
2023/03/12 10:56:18;;;;;;;;;5.67;5.00;;;;;16.80;47.43;100983.38;5033056;28;45412;-73
2023/03/12 10:58:49;;;;;;;;;5.00;5.00;;;;;16.80;47.87;100978.00;5027312;28;45357;-75
2023/03/12 11:01:14;;;;;;;;;5.67;3.00;;;;;16.69;47.75;101009.66;5037681;28;45626;-72
2023/03/12 11:03:40;;;;;;;;;7.67;4.00;;;;;16.19;48.06;100915.31;5038079;28;45211;-73
2023/03/12 11:06:10;;;;;;;;;4.00;4.00;;;;;16.36;48.15;100968.69;5037859;28;45190;-74
2023/03/12 11:08:36;;;;;;;;;4.00;2.33;;;;;16.55;48.37;100998.78;5037315;28;45445;-74
2023/03/12 11:11:03;;;;;;;;;4.33;3.00;;;;;16.30;48.44;100960.53;5035645;28;47755;-74
2023/03/12 11:13:38;;;;;;;;;5.00;3.67;;;;;16.56;48.04;100982.50;5037084;28;45338;-75
2023/03/12 11:16:15;;;;;;;;;4.33;1.00;;;;;16.55;48.01;100980.00;5032233;28;45293;-71
2023/03/12 11:19:00;;;;;;;;;6.67;4.00;;;;;16.59;48.07;100982.16;5017288;28;45520;-73
2023/03/12 11:21:27;;;;;;;;;3.33;3.00;;;;;16.60;48.24;100966.88;5016992;28;45706;-74
2023/03/12 11:23:55;;;;;;;;;5.67;4.67;;;;;16.65;48.28;100977.94;5017191;28;45378;-75